Main page
METAR-TAF:

METAR-TAF

Airports :

Kurumoch International Airport

Samara, Russia

latitude: 53-12N, longitude: 050-09E, elevation: 44 m

Current weather observation

The report was made 36 minutes ago, at 15:30 UTC
Wind 8 kt from the North
Temperature 20°C
Humidity 46%
Pressure 1022 hPa
Visibility 10 km or more
no clouds below 1500 m and no cumulonimbus

METAR: UWWW 281530Z 36004MPS CAVOK 20/08 Q1022 R33/CLRD60 NOSIG RMK QFE756/1008

Time: 20:06 (16:06 UTC)

Forecast

The report was made 2 hours and 15 minutes ago, at 13:51 UTC
Forecast valid from 28 at 15 UTC to 29 at 15 UTC
Wind 6 kt from the North with gusts up to 17 kt
Visibility 10 km or more
Scattered clouds at a height of 3000 ft
Becoming
from 29 at 04 UTC to 29 at 05 UTC
Wind 12 kt from the East/Northeast
Temporary
from 29 at 05 UTC to 29 at 12 UTC
Wind 14 kt from the East with gusts up to 27 kt

TAF: UWWW 281351Z 2815/2915 01003G09MPS 9999 SCT030 TX25/2911Z TN10/2902Z BECMG 2904/2905 07006MPS TEMPO 2905/2912 09007G14MPS

Weather observations and forecasts of more than 4000 airports (METAR and TAF reports).

The available stations are represented by yellow and red dots on the map.

Hover mouse over dot to see the name of the station.

Then click to see weather observations and forecasts.

To change the map : click on the green buttons with a black cross to zoom in, on the green button with a dash to zoom out, or on the green arrows for adjacent maps.


METAR-TAF: